Flight Track Log - Related Links

Times and Time Zones

All times are in EDT time to prevent confusion due to time zone crossing. See the SKW5564 flight status page for this flight to view local times or setup timezone preferences in your user account.

Time Position Orientation Groundspeed Altitude Reporting Facility
EDT Latitude Longitude Course Direction KTS MPH feet Rate Location/Type
Sun 09:32:36 PM 33.4333 -111.9833 90° East 146 168 1,700  Level Phoenix TRACON
Sun 09:33:25 PM 33.4333 -111.9333 90° East 180 207 3,500 1,982 Climbing Phoenix TRACON
Sun 09:34:25 PM 33.4167 -111.8667 107° East 239 275 5,300 1,689 Climbing Phoenix TRACON
Sun 09:35:08 PM 33.3994 -111.8161 112° Southeast 242 278 6,400 1,714 Climbing Albuquerque Center
Sun 09:36:10 PM 33.3331 -111.8214 184° South 254 292 8,300 1,756 Climbing Albuquerque Center
Sun 09:37:11 PM 33.2611 -111.8567 202° Southwest 278 320 10,000 1,512 Climbing Albuquerque Center
Sun 09:38:13 PM 33.2400 -111.9447 254° West 310 357 11,400 1,317 Climbing Albuquerque Center
Sun 09:39:14 PM 33.2667 -112.0503 287° West 327 376 12,700 1,180 Climbing Albuquerque Center
Sun 09:40:15 PM 33.2944 -112.1631 286° West 350 403 13,800 1,171 Climbing Albuquerque Center
Sun 09:41:17 PM 33.3228 -112.2808 286° West 363 418 15,100 1,415 Climbing Albuquerque Center
Sun 09:42:18 PM 33.3569 -112.4250 286° West 370 426 16,700 1,574 Climbing Albuquerque Center
Sun 09:43:19 PM 33.3867 -112.5464 286° West 374 430 18,300 1,268 Climbing Albuquerque Center
Sun 09:44:21 PM 33.4119 -112.6497 286° West 375 432 19,300 829 Climbing Albuquerque Center
Sun 09:45:22 PM 33.4469 -112.7964 286° West 380 437 20,000 639 Climbing Albuquerque Center
Sun 09:46:23 PM 33.4731 -112.9253 284° West 394 453 20,600 585 Climbing Albuquerque Center
Sun 09:47:25 PM 33.4978 -113.0569 283° West 402 463 21,200 683 Climbing Albuquerque Center
Sun 09:48:26 PM 33.5236 -113.1897 283° West 406 467 22,000 836 Climbing Albuquerque Center
Sun 09:49:27 PM 33.5497 -113.3214 283° West 408 470 22,900 878 Climbing Albuquerque Center
Sun 09:50:29 PM 33.5728 -113.4506 282° West 403 464 23,800 829 Climbing Albuquerque Center
Sun 09:51:30 PM 33.5978 -113.5800 283° West 402 463 24,600 836 Climbing Albuquerque Center
Sun 09:52:31 PM 33.6264 -113.7344 283° West 402 463 25,500 780 Climbing Albuquerque Center
Sun 09:53:33 PM 33.6500 -113.8653 282° West 402 463 26,200 634 Climbing Albuquerque Center
Sun 09:54:34 PM 33.6744 -113.9953 283° West 402 463 26,800 689 Climbing Albuquerque Center
Sun 09:55:35 PM 33.6978 -114.1267 282° West 402 463 27,600 732 Climbing Albuquerque Center
Sun 09:56:37 PM 33.7219 -114.2556 283° West 400 460 28,300 537 Climbing Albuquerque Center
Sun 09:57:38 PM 33.7444 -114.3842 282° West 399 459 28,700 344 Climbing Albuquerque Center
Sun 09:58:39 PM 33.7683 -114.5144 282° West 399 459 29,000 343 Climbing Albuquerque Center
Sun 09:59:58 PM 33.8303 -114.6869 293° West 407 468 29,500 340 Climbing Los Angeles Center
Sun 10:01:00 PM 33.8744 -114.8083 294° West 403 464 29,800 242 Climbing Los Angeles Center
Sun 10:02:02 PM 33.9208 -114.9317 294° West 403 464 30,000 96 Climbing Los Angeles Center
Sun 10:03:05 PM 33.9678 -115.0561 294° West 405 466 30,000  Level Los Angeles Center
Sun 10:04:07 PM 34.0253 -115.2108 294° West 417 480 30,000  Level Los Angeles Center
Sun 10:05:09 PM 34.0725 -115.3400 294° West 419 482 30,000 194 Level Los Angeles Center
Sun 10:06:11 PM 34.1200 -115.4689 294° West 421 484 30,400 435 Climbing Los Angeles Center
Sun 10:07:13 PM 34.1653 -115.5958 293° West 420 483 30,900 435 Climbing Los Angeles Center
Sun 10:08:15 PM 34.2097 -115.7178 294° West 407 468 31,300 339 Climbing Los Angeles Center
Sun 10:09:17 PM 34.2547 -115.8417 294° West 406 467 31,600 339 Climbing Los Angeles Center
Sun 10:10:19 PM 34.3017 -115.9744 293° West 405 466 32,000 194 Climbing Los Angeles Center
Sun 10:11:21 PM 34.3458 -116.0978 293° West 402 463 32,000  Level Los Angeles Center
Sun 10:12:23 PM 34.3903 -116.2219 293° West 402 463 32,000  Level Los Angeles Center
Sun 10:13:25 PM 34.4433 -116.3686 294° West 400 460 32,000  Level Los Angeles Center
Sun 10:14:28 PM 34.4853 -116.4897 293° West 394 453 32,000  Level Los Angeles Center
Sun 10:15:30 PM 34.5275 -116.6111 293° West 391 450 32,000  Level Los Angeles Center
Sun 10:16:32 PM 34.5694 -116.7300 293° West 388 447 32,000  Level Los Angeles Center
Sun 10:18:36 PM 34.6606 -116.9922 293° West 385 443 32,000  Level Los Angeles Center
Sun 10:19:38 PM 34.7014 -117.1103 293° West 382 440 32,000  Level Los Angeles Center
Sun 10:20:40 PM 34.7417 -117.2294 292° West 379 436 32,000  Level Los Angeles Center
Sun 10:21:42 PM 34.7822 -117.3464 293° West 379 436 32,000  Level Los Angeles Center
Sun 10:22:44 PM 34.8214 -117.4664 292° West 379 436 32,000  Level Los Angeles Center
Sun 10:23:46 PM 34.8622 -117.5872 292° West 380 437 32,000  Level Los Angeles Center
Sun 10:24:48 PM 34.9025 -117.7097 292° West 384 442 32,000  Level Los Angeles Center
Sun 10:25:51 PM 34.9450 -117.8311 293° West 384 442 32,000  Level Los Angeles Center
Sun 10:26:53 PM 34.9944 -117.9725 293° West 378 435 32,000  Level Los Angeles Center
Sun 10:27:55 PM 35.0347 -118.0925 292° West 380 437 32,000  Level Los Angeles Center
Sun 10:28:57 PM 35.0758 -118.2147 292° West 387 445 32,000  Level Los Angeles Center
Sun 10:29:59 PM 35.1144 -118.3308 292° West 375 432 32,000  Level Los Angeles Center
Sun 10:31:01 PM 35.1542 -118.4514 292° West 380 437 32,000  Level Los Angeles Center
Sun 10:32:03 PM 35.2000 -118.5867 293° West 380 437 32,000  Level Los Angeles Center
Sun 10:33:05 PM 35.2394 -118.7067 292° West 384 442 32,000  Level Los Angeles Center
Sun 10:34:07 PM 35.2786 -118.8267 292° West 385 443 32,000  Level Los Angeles Center
Sun 10:35:09 PM 35.3186 -118.9478 292° West 381 438 32,000  Level Los Angeles Center
Sun 10:36:11 PM 35.3583 -119.0686 292° West 380 437 32,000  Level Los Angeles Center
Sun 10:37:13 PM 35.4081 -119.2142 293° West 388 447 32,000  Level Los Angeles Center
Sun 10:38:15 PM 35.4461 -119.3364 291° West 386 444 32,000  Level Los Angeles Center
Sun 10:39:17 PM 35.4828 -119.4578 290° West 384 442 32,000  Level Los Angeles Center
Sun 10:40:19 PM 35.5194 -119.5781 291° West 380 437 32,000  Level Los Angeles Center
Sun 10:41:21 PM 35.5594 -119.6986 292° West 380 437 32,000  Level Los Angeles Center
Sun 10:42:23 PM 35.6053 -119.8458 291° West 384 442 32,000  Level Los Angeles Center
Sun 10:43:25 PM 35.6436 -119.9644 292° West 383 441 32,000  Level Los Angeles Center
Sun 10:44:27 PM 35.6833 -120.0867 292° West 385 443 32,000  Level Los Angeles Center
Sun 10:45:29 PM 35.7225 -120.2064 292° West 384 442 32,000  Level Los Angeles Center
Sun 10:46:31 PM 35.7614 -120.3247 292° West 380 437 32,000  Level Los Angeles Center
Sun 10:47:33 PM 35.8075 -120.4683 292° West 379 436 32,000  Level Los Angeles Center
Sun 10:48:35 PM 35.8483 -120.5856 293° West 377 434 32,000  Level Los Angeles Center
Sun 10:49:44 PM 35.9169 -120.6886 309° West 389 448 32,000  Level Oakland Center
Sun 10:50:45 PM 36.0000 -120.8164 309° West 398 458 32,000  Level Oakland Center
Sun 10:51:47 PM 36.0714 -120.9250 309° West 405 466 32,000  Level Oakland Center
Sun 10:52:48 PM 36.1444 -121.0358 309° West 412 474 32,000  Level Oakland Center
Sun 10:53:49 PM 36.2161 -121.1486 308° West 414 476 32,000 -390 Level Oakland Center
Sun 10:54:51 PM 36.2919 -121.2622 310° West 424 488 31,200 -878 Descending Oakland Center
Sun 10:55:52 PM 36.3678 -121.3808 308° West 435 501 30,200 -976 Descending Oakland Center
Sun 10:56:54 PM 36.4425 -121.4961 309° West 434 499 29,200 -1,756 Descending Oakland Center
Sun 10:57:55 PM 36.5144 -121.6056 309° West 418 481 26,600 -2,852 Descending Oakland Center
Sun 10:58:56 PM 36.5964 -121.7333 309° West 399 459 23,400 -2,683 Descending Oakland Center
Sun 10:59:58 PM 36.6564 -121.8258 309° West 385 443 21,100 -2,341 Descending Oakland Center
Sun 11:00:59 PM 36.7217 -121.9269 309° West 381 438 18,600 -2,390 Descending Oakland Center
Sun 11:02:01 PM 36.8103 -121.9822 333° Northwest 374 430 16,200 -2,488 Descending Oakland Center
Sun 11:03:02 PM 36.9294 -122.0136 348° North 364 419 13,500 -2,311 Descending Oakland Center
Sun 11:04:03 PM 37.0242 -122.0364 349° North 351 404 11,500 -1,463 Descending Oakland Center
Sun 11:05:05 PM 37.1094 -122.0603 347° North 317 365 10,500 -780 Descending Oakland Center
Sun 11:06:06 PM 37.1817 -122.0806 347° North 269 310 9,900 -541 Descending Oakland Center
Sun 11:07:07 PM 37.2197 -122.1375 310° West 247 284 9,400 -780 Descending Oakland Center
Sun 11:08:09 PM 37.2542 -122.2031 303° West 243 280 8,300 -1,171 Descending Oakland Center
Sun 11:09:10 PM 37.3214 -122.2067 358° North 240 276 7,000 -1,279 Descending Oakland Center
Sun 11:10:11 PM 37.3869 -122.2117 357° North 240 276 5,700 -1,366 Descending Oakland Center
Sun 11:11:13 PM 37.4514 -122.2178 356° North 237 273 4,200 -1,024 Descending Oakland Center
Sun 11:12:14 PM 37.5208 -122.1906 17° North 232 267 3,600 -787 Descending Oakland Center
Sun 11:13:15 PM 37.5581 -122.2286 321° Northwest 206 237 2,600 -1,024 Descending Oakland Center
Sun 11:14:17 PM 37.5744 -122.2731 295° West 161 185 1,500 -878 Descending Oakland Center
Sun 11:15:18 PM 37.5928 -122.3156 299° West 147 169 800 -585 Descending Oakland Center
Sun 11:16:20 PM 37.6108 -122.3586 298° West 139 160 300 -484 Descending Oakland Center
Sun 11:18:00 PM 37.6167 -122.3667 322° Northwest  Level FlightAware Approximate

Login

Don't have an account? Register now (free) for customized features, flight alerts, and more!